Stations météo

réclame
Mon MeteoGroup
Faaroesund-ar, Suède (2587): Température de l'air & dewpoint: 15.08.2018 06:00:00 - 21.08.2018 06:00:00 (CEST)Faaroesund-ar, Suède (2587): Vitesse du vent & gusts: 15.08.2018 06:00:00 - 21.08.2018 06:00:00 (CEST)Faaroesund-ar, Suède (2587): Direction du vent: 15.08.2018 06:00:00 - 21.08.2018 06:00:00 (CEST)Faaroesund-ar, Suède (2587): visibility: 15.08.2018 06:00:00 - 21.08.2018 06:00:00 (CEST)Faaroesund-ar, Suède (2587): Quantités de précipitations: 15.08.2018 06:00:00 - 21.08.2018 06:00:00 (CEST)
Date & Time tt [°C] td [°C] ff [km/h] ff [knt] fx [km/h] fx [knt] dd vv [km] rr [mm]
21.08.2018 06:00:00 - - - - - - - - -
21.08.2018 05:00:00 15,6 9,7 36 19 47 26 NNW 50 0,0
21.08.2018 04:00:00 15,9 10,9 34 18 44 24 NNW 50 0,0
21.08.2018 03:00:00 15,9 10,2 33 18 43 23 NNW 50 0,0
21.08.2018 02:00:00 16,2 10,9 22 12 30 16 N 50 0,0
21.08.2018 01:00:00 15,6 11,8 18 10 64 34 N 50 0,9
21.08.2018 00:00:00 14,7 13,1 15 8 64 34 NNW 7 8,1
20.08.2018 23:00:00 16,3 14,0 13 7 32 17 NNE 21 3,5
20.08.2018 22:00:00 16,5 13,2 23 13 32 17 NW 49 0,0
20.08.2018 21:00:00 15,9 13,0 15 8 30 16 W 50 0,0
20.08.2018 20:00:00 16,6 12,6 20 11 30 16 NW 50 0,0
20.08.2018 19:00:00 16,5 13,8 21 11 41 22 NW 50 0,0
20.08.2018 18:00:00 16,0 14,4 21 12 55 30 NNW 50 0,0
20.08.2018 17:00:00 16,3 15,2 36 19 55 30 NNW 41 0,0
20.08.2018 16:00:00 17,8 16,5 34 18 39 21 WNW 50 0,0
20.08.2018 15:00:00 17,4 16,8 14 8 18 10 W 2,6 0,1
20.08.2018 14:00:00 18,0 16,9 5 3 9 5 NW 14 0,2
20.08.2018 13:00:00 17,0 15,9 4 2 15 8 E 3,9 0,3
20.08.2018 12:00:00 17,3 16,3 4 2 23 12 SSE 4,1 0,5
20.08.2018 11:00:00 18,2 16,0 10 6 32 17 SW 17 0,0
20.08.2018 10:00:00 17,9 16,4 16 9 33 18 WSW 19 0,1
20.08.2018 09:00:00 17,8 16,8 18 10 33 18 SW 14 0,1
20.08.2018 08:00:00 17,8 16,8 20 11 30 16 SW 17 0,1
20.08.2018 07:00:00 17,6 16,8 17 9 29 15 SW 29 1,2
20.08.2018 06:00:00 17,0 16,7 16 9 24 13 S 11 2,4
20.08.2018 05:00:00 16,8 16,5 10 5 19 11 SSW 9 5,9
20.08.2018 04:00:00 16,7 16,2 7 4 12 6 SSE 2,9 3,3
20.08.2018 03:00:00 17,0 16,5 7 4 21 11 S 11 1,1
20.08.2018 02:00:00 17,3 16,5 6 3 27 15 SSW 12 1,1
20.08.2018 01:00:00 17,8 16,0 14 8 27 15 WSW 47 0,0
20.08.2018 00:00:00 18,0 16,2 17 9 32 17 WSW 41 0,0
19.08.2018 23:00:00 18,1 16,3 20 11 32 17 SW 50 0,0
19.08.2018 22:00:00 18,4 16,6 22 12 35 19 WSW 43 0,0
19.08.2018 21:00:00 18,7 17,0 18 10 35 19 SW 35 0,0
19.08.2018 20:00:00 20,3 15,3 18 10 32 17 SW 50 0,0
19.08.2018 19:00:00 20,6 16,0 22 12 31 17 WSW 50 0,0
19.08.2018 18:00:00 20,8 14,4 19 11 41 22 W 48 0,0
19.08.2018 17:00:00 21,0 12,8 23 12 48 26 WSW 45 0,0
19.08.2018 16:00:00 21,1 13,0 32 17 48 26 W 43 0,0
19.08.2018 15:00:00 21,6 14,0 26 14 53 29 W 48 0,0
19.08.2018 14:00:00 20,6 13,8 32 18 53 29 WSW 42 0,0
19.08.2018 13:00:00 21,4 13,3 32 17 51 27 WSW 40 0,0
19.08.2018 12:00:00 20,7 12,7 33 18 50 27 WSW 46 0,0
19.08.2018 11:00:00 19,5 14,5 28 15 48 26 W 40 0,0
19.08.2018 10:00:00 19,7 14,3 29 16 51 28 WSW 41 0,0
19.08.2018 09:00:00 19,6 14,6 28 15 51 28 WSW 46 0,0
19.08.2018 08:00:00 19,1 15,4 25 14 40 22 WSW 40 0,0
19.08.2018 07:00:00 17,7 15,9 21 11 41 22 SW 40 0,0
19.08.2018 06:00:00 17,5 15,8 24 13 41 22 SW 31 0,5
19.08.2018 05:00:00 18,9 14,4 24 13 38 20 WSW 41 0,0
19.08.2018 04:00:00 18,3 14,0 20 11 38 21 SW 39 0,0
19.08.2018 03:00:00 18,6 13,9 22 12 42 23 SW 46 0,0
19.08.2018 02:00:00 18,8 13,6 26 14 42 23 SW 50 0,0
19.08.2018 01:00:00 19,5 13,2 26 14 42 23 SW 50 0,0
19.08.2018 00:00:00 19,5 12,5 23 12 33 18 SW 50 0,0
18.08.2018 23:00:00 18,2 13,5 18 10 27 15 SW 49 0,0
18.08.2018 22:00:00 18,2 13,3 16 9 32 17 S 31 0,0
18.08.2018 21:00:00 18,7 12,7 15 8 38 20 SSW 40 0,0
18.08.2018 20:00:00 19,7 12,5 21 11 38 20 SSW 42 0,0
18.08.2018 19:00:00 20,4 11,9 19 11 38 20 SSW 44 0,0
18.08.2018 18:00:00 21,3 11,0 23 12 43 23 SW 42 0,0
18.08.2018 17:00:00 22,2 10,7 23 12 43 23 SW 46 0,0
18.08.2018 16:00:00 22,3 9,1 26 14 39 21 WSW 45 0,0
18.08.2018 15:00:00 22,5 9,3 19 10 37 20 WSW 42 0,0
18.08.2018 14:00:00 22,1 10,9 19 11 37 20 W 32 0,0
18.08.2018 13:00:00 20,6 13,8 21 11 24 13 NW 32 0,0
18.08.2018 12:00:00 20,5 14,6 17 9 21 12 NW 31 0,0
18.08.2018 11:00:00 20,3 14,6 14 7 18 10 NW 27 0,0
18.08.2018 10:00:00 19,6 14,6 11 6 18 10 WNW 27 0,0
18.08.2018 09:00:00 18,9 14,2 12 7 18 10 NW 23 0,0
18.08.2018 08:00:00 18,9 14,2 11 6 20 11 NNW 22 0,0
18.08.2018 07:00:00 18,7 14,4 12 6 20 11 NNW 24 0,0
18.08.2018 06:00:00 18,7 14,0 13 7 21 11 NNW 25 0,0
18.08.2018 05:00:00 18,5 14,6 16 8 21 11 NNW 27 0,0
18.08.2018 04:00:00 18,2 15,5 14 8 27 14 WNW 45 0,0
18.08.2018 03:00:00 17,6 15,8 14 8 27 14 W 50 0,7
18.08.2018 02:00:00 18,0 15,6 14 7 26 14 W 48 0,0
18.08.2018 01:00:00 18,8 16,0 21 11 26 14 NW 50 0,0
18.08.2018 00:00:00 18,6 15,5 12 7 22 12 SW 50 0,0
17.08.2018 23:00:00 18,7 15,0 10 5 31 17 S 50 0,0
17.08.2018 22:00:00 19,3 15,4 14 8 34 19 S 50 0,0
17.08.2018 21:00:00 19,7 15,3 16 9 34 19 S 50 0,0
17.08.2018 20:00:00 20,4 15,6 16 9 38 21 S 50 0,0
17.08.2018 19:00:00 21,2 15,5 20 11 47 25 S 46 0,0
17.08.2018 18:00:00 21,7 16,0 28 15 47 25 SSE 42 0,0
17.08.2018 17:00:00 23,0 15,6 26 14 51 28 SSE 46 0,0
17.08.2018 16:00:00 23,9 14,9 32 18 51 28 SSE 43 0,0
17.08.2018 15:00:00 25,0 15,0 26 14 47 25 SSE 50 0,0
17.08.2018 14:00:00 25,3 15,0 25 14 47 26 SSE 44 0,0
17.08.2018 13:00:00 25,3 14,4 29 16 47 26 S 38 0,0
17.08.2018 12:00:00 25,1 15,7 24 13 36 19 SSE 8 0,0
17.08.2018 11:00:00 25,1 17,3 18 10 29 16 SSE 9 0,0
17.08.2018 10:00:00 24,2 17,0 14 8 31 17 S 41 0,0
17.08.2018 09:00:00 22,5 17,2 14 7 35 19 S 38 0,0
17.08.2018 08:00:00 20,8 17,2 18 10 35 19 S 38 0,0
17.08.2018 07:00:00 19,6 16,6 17 9 28 15 S 31 0,0
17.08.2018 06:00:00 18,3 15,7 14 8 27 14 S 46 0,0
17.08.2018 05:00:00 17,6 15,9 14 7 27 14 S 44 0,0
17.08.2018 04:00:00 17,6 16,3 15 8 24 13 S 27 0,0
17.08.2018 03:00:00 17,7 16,6 14 7 26 14 S 11 0,0
17.08.2018 02:00:00 17,7 16,4 15 8 26 14 S 12 0,0
17.08.2018 01:00:00 17,9 16,8 13 7 26 14 S 12 0,0
17.08.2018 00:00:00 17,9 16,8 14 7 30 16 S 10 0,0
16.08.2018 23:00:00 18,2 16,9 17 9 30 16 S 13 0,0
16.08.2018 22:00:00 - - - - 27 15 - - -
16.08.2018 21:00:00 18,6 16,8 15 8 29 16 S 29 0,0
16.08.2018 20:00:00 19,3 16,8 14 8 29 16 SSE 46 0,0
16.08.2018 19:00:00 20,6 16,2 17 9 32 18 SSE 50 0,0
16.08.2018 18:00:00 22,0 15,1 20 11 33 18 SSE 50 0,0
16.08.2018 17:00:00 22,9 15,7 18 10 37 20 SSE 50 0,0
16.08.2018 16:00:00 22,7 15,5 24 13 37 20 SSE 46 0,0
16.08.2018 15:00:00 23,3 15,4 22 12 38 20 SSE 48 0,0
16.08.2018 14:00:00 22,8 14,6 21 12 36 19 S 49 0,0
16.08.2018 13:00:00 22,7 16,0 20 11 35 19 S 45 0,0
16.08.2018 12:00:00 22,3 16,3 19 11 33 18 SSE 46 0,0
16.08.2018 11:00:00 22,3 16,1 16 9 30 16 SSE 43 0,0
16.08.2018 10:00:00 21,9 15,7 14 7 27 15 S 49 0,0
16.08.2018 09:00:00 20,3 16,3 13 7 20 11 S 43 0,0
16.08.2018 08:00:00 18,5 16,3 11 6 18 10 SSE 48 0,0
16.08.2018 07:00:00 17,2 15,7 10 6 16 9 S 43 0,0
16.08.2018 06:00:00 15,7 14,9 10 6 17 9 S 42 0,0
16.08.2018 05:00:00 14,8 13,8 11 6 17 9 S 49 0,0
16.08.2018 04:00:00 14,5 13,5 11 6 14 7 S 50 0,0
16.08.2018 03:00:00 13,9 13,1 11 6 14 8 S 50 0,0
16.08.2018 02:00:00 14,4 13,4 9 5 14 8 SSW 50 0,0
16.08.2018 01:00:00 14,2 13,4 10 5 13 7 SSW 50 0,0
16.08.2018 00:00:00 14,6 13,8 9 5 13 7 SSW 50 0,0
15.08.2018 23:00:00 15,8 14,2 6 3 15 8 WSW 50 0,0
15.08.2018 22:00:00 16,1 13,8 6 3 18 10 W 50 0,0
15.08.2018 21:00:00 17,5 14,6 11 6 20 11 NW 50 0,0
15.08.2018 20:00:00 17,6 14,5 16 8 23 12 NW 50 0,0
15.08.2018 19:00:00 18,2 14,7 16 9 30 16 NW 50 0,0
15.08.2018 18:00:00 18,3 15,2 18 10 36 19 NNW 50 0,0
15.08.2018 17:00:00 18,0 15,3 28 15 37 20 NNW 49 0,0
15.08.2018 16:00:00 18,3 15,5 29 15 38 20 NNW 50 0,0
15.08.2018 15:00:00 18,5 16,1 30 16 38 20 NNW 50 0,0
15.08.2018 14:00:00 18,9 16,3 31 17 37 20 NNW - 0,0
15.08.2018 13:00:00 18,6 16,4 31 17 38 21 NW 50 0,0
15.08.2018 12:00:00 19,2 17,0 32 17 38 21 NNW 37 0,0
15.08.2018 11:00:00 19,4 16,6 24 13 32 17 NW 50 0,0
15.08.2018 10:00:00 19,2 16,8 28 15 32 17 NNW 44 0,0
15.08.2018 09:00:00 19,0 16,8 19 10 29 16 NNW 50 0,0
15.08.2018 08:00:00 19,1 16,7 22 12 28 15 NNW 49 0,0
15.08.2018 07:00:00 18,6 16,0 16 9 25 13 NNW 50 0,0
15.08.2018 06:00:00 18,3 16,3 17 9 25 13 N 50 0,0

tt = Température de l'air
td = dewpoint
ff = Vitesse du vent
fx = gusts
dd = Direction du vent
vv = visibility
rr = Quantités de précipitations

stations d'obs. à proximité